sensor_id;sensor_type;location;lat;lon;timestamp;P1;durP1;ratioP1;P2;durP2;ratioP2
59786;SDS011;45672;51.612;5.536;2022-10-16T00:00:14;8.32;;;4.35;;
59786;SDS011;45672;51.612;5.536;2022-10-16T00:02:40;5.53;;;4.72;;
59786;SDS011;45672;51.612;5.536;2022-10-16T00:05:05;10.73;;;4.95;;
59786;SDS011;45672;51.612;5.536;2022-10-16T00:07:30;7.47;;;4.40;;
59786;SDS011;45672;51.612;5.536;2022-10-16T00:09:55;7.07;;;4.60;;
59786;SDS011;45672;51.612;5.536;2022-10-16T00:12:21;7.10;;;4.20;;
59786;SDS011;45672;51.612;5.536;2022-10-16T00:14:46;6.00;;;4.40;;
59786;SDS011;45672;51.612;5.536;2022-10-16T00:17:11;7.50;;;4.47;;
59786;SDS011;45672;51.612;5.536;2022-10-16T00:19:37;7.13;;;4.43;;
59786;SDS011;45672;51.612;5.536;2022-10-16T00:22:02;6.95;;;4.32;;
59786;SDS011;45672;51.612;5.536;2022-10-16T00:24:27;7.75;;;4.30;;
59786;SDS011;45672;51.612;5.536;2022-10-16T00:26:53;6.95;;;4.07;;
59786;SDS011;45672;51.612;5.536;2022-10-16T00:29:18;7.00;;;4.22;;
59786;SDS011;45672;51.612;5.536;2022-10-16T00:31:43;4.60;;;4.13;;
59786;SDS011;45672;51.612;5.536;2022-10-16T00:34:09;8.30;;;4.30;;
59786;SDS011;45672;51.612;5.536;2022-10-16T00:36:34;7.03;;;4.20;;
59786;SDS011;45672;51.612;5.536;2022-10-16T00:38:59;7.05;;;4.30;;
59786;SDS011;45672;51.612;5.536;2022-10-16T00:41:26;7.32;;;3.90;;
59786;SDS011;45672;51.612;5.536;2022-10-16T00:43:55;5.82;;;3.92;;
59786;SDS011;45672;51.612;5.536;2022-10-16T00:49:00;5.85;;;3.80;;
59786;SDS011;45672;51.612;5.536;2022-10-16T00:51:32;6.55;;;4.03;;
59786;SDS011;45672;51.612;5.536;2022-10-16T00:54:02;8.98;;;4.15;;
59786;SDS011;45672;51.612;5.536;2022-10-16T00:56:32;6.53;;;3.90;;
59786;SDS011;45672;51.612;5.536;2022-10-16T00:58:58;7.05;;;4.20;;
59786;SDS011;45672;51.612;5.536;2022-10-16T01:01:26;7.47;;;4.28;;
59786;SDS011;45672;51.612;5.536;2022-10-16T01:03:51;5.68;;;3.70;;
59786;SDS011;45672;51.612;5.536;2022-10-16T01:06:19;5.07;;;4.63;;
59786;SDS011;45672;51.612;5.536;2022-10-16T01:09:12;6.03;;;3.88;;
59786;SDS011;45672;51.612;5.536;2022-10-16T01:12:40;5.07;;;3.72;;
59786;SDS011;45672;51.612;5.536;2022-10-16T01:17:34;5.60;;;4.10;;
59786;SDS011;45672;51.612;5.536;2022-10-16T01:25:36;6.05;;;4.10;;
59786;SDS011;45672;51.612;5.536;2022-10-16T01:28:28;6.85;;;3.70;;
59786;SDS011;45672;51.612;5.536;2022-10-16T01:30:59;10.15;;;4.15;;
59786;SDS011;45672;51.612;5.536;2022-10-16T01:33:35;6.03;;;3.92;;
59786;SDS011;45672;51.612;5.536;2022-10-16T01:36:11;6.85;;;4.00;;
59786;SDS011;45672;51.612;5.536;2022-10-16T01:38:40;5.10;;;4.00;;
59786;SDS011;45672;51.612;5.536;2022-10-16T01:41:17;5.45;;;4.28;;
59786;SDS011;45672;51.612;5.536;2022-10-16T01:43:48;4.95;;;3.97;;
59786;SDS011;45672;51.612;5.536;2022-10-16T01:46:21;3.80;;;3.50;;
59786;SDS011;45672;51.612;5.536;2022-10-16T01:48:49;5.82;;;3.50;;
59786;SDS011;45672;51.612;5.536;2022-10-16T01:51:16;4.80;;;3.70;;
59786;SDS011;45672;51.612;5.536;2022-10-16T01:53:45;5.95;;;4.10;;
59786;SDS011;45672;51.612;5.536;2022-10-16T01:56:15;4.33;;;3.73;;
59786;SDS011;45672;51.612;5.536;2022-10-16T01:58:47;7.43;;;3.60;;
59786;SDS011;45672;51.612;5.536;2022-10-16T02:01:17;6.90;;;3.53;;
59786;SDS011;45672;51.612;5.536;2022-10-16T02:03:46;4.15;;;3.53;;
59786;SDS011;45672;51.612;5.536;2022-10-16T02:06:16;3.92;;;3.45;;
59786;SDS011;45672;51.612;5.536;2022-10-16T02:08:41;6.63;;;3.58;;
59786;SDS011;45672;51.612;5.536;2022-10-16T02:11:09;7.13;;;3.42;;
59786;SDS011;45672;51.612;5.536;2022-10-16T02:13:37;4.22;;;3.10;;
59786;SDS011;45672;51.612;5.536;2022-10-16T02:16:07;3.17;;;2.88;;
59786;SDS011;45672;51.612;5.536;2022-10-16T02:18:34;3.70;;;3.08;;
59786;SDS011;45672;51.612;5.536;2022-10-16T02:23:54;4.10;;;3.15;;
59786;SDS011;45672;51.612;5.536;2022-10-16T02:26:52;5.20;;;3.38;;
59786;SDS011;45672;51.612;5.536;2022-10-16T02:29:27;4.95;;;3.20;;
59786;SDS011;45672;51.612;5.536;2022-10-16T02:32:00;3.45;;;3.00;;
59786;SDS011;45672;51.612;5.536;2022-10-16T02:34:29;3.50;;;2.90;;
59786;SDS011;45672;51.612;5.536;2022-10-16T02:36:57;5.75;;;2.95;;
59786;SDS011;45672;51.612;5.536;2022-10-16T02:39:23;3.10;;;2.70;;
59786;SDS011;45672;51.612;5.536;2022-10-16T02:41:50;6.35;;;2.88;;
59786;SDS011;45672;51.612;5.536;2022-10-16T02:44:15;5.85;;;2.70;;
59786;SDS011;45672;51.612;5.536;2022-10-16T02:46:41;4.18;;;3.22;;
59786;SDS011;45672;51.612;5.536;2022-10-16T02:49:06;3.17;;;2.85;;
59786;SDS011;45672;51.612;5.536;2022-10-16T02:51:31;5.28;;;2.90;;
59786;SDS011;45672;51.612;5.536;2022-10-16T02:53:56;3.45;;;2.78;;
59786;SDS011;45672;51.612;5.536;2022-10-16T02:56:22;3.22;;;2.72;;
59786;SDS011;45672;51.612;5.536;2022-10-16T02:58:47;2.97;;;2.70;;
59786;SDS011;45672;51.612;5.536;2022-10-16T03:01:12;5.25;;;2.88;;
59786;SDS011;45672;51.612;5.536;2022-10-16T03:03:39;8.10;;;3.03;;
59786;SDS011;45672;51.612;5.536;2022-10-16T03:06:04;3.90;;;2.58;;
59786;SDS011;45672;51.612;5.536;2022-10-16T03:08:30;4.68;;;2.63;;
59786;SDS011;45672;51.612;5.536;2022-10-16T03:10:56;4.70;;;3.13;;
59786;SDS011;45672;51.612;5.536;2022-10-16T03:13:21;3.63;;;2.58;;
59786;SDS011;45672;51.612;5.536;2022-10-16T03:15:46;7.93;;;2.80;;
59786;SDS011;45672;51.612;5.536;2022-10-16T03:18:12;7.95;;;4.10;;
59786;SDS011;45672;51.612;5.536;2022-10-16T03:20:37;4.10;;;2.78;;
59786;SDS011;45672;51.612;5.536;2022-10-16T03:23:03;2.70;;;2.50;;
59786;SDS011;45672;51.612;5.536;2022-10-16T03:25:28;3.88;;;2.80;;
59786;SDS011;45672;51.612;5.536;2022-10-16T03:27:54;3.30;;;3.00;;
59786;SDS011;45672;51.612;5.536;2022-10-16T03:30:19;3.17;;;2.88;;
59786;SDS011;45672;51.612;5.536;2022-10-16T03:32:44;4.18;;;2.92;;
59786;SDS011;45672;51.612;5.536;2022-10-16T03:35:10;3.20;;;2.90;;
59786;SDS011;45672;51.612;5.536;2022-10-16T03:37:35;3.60;;;3.00;;
59786;SDS011;45672;51.612;5.536;2022-10-16T03:40:01;4.53;;;2.92;;
59786;SDS011;45672;51.612;5.536;2022-10-16T03:42:27;6.97;;;3.05;;
59786;SDS011;45672;51.612;5.536;2022-10-16T03:44:52;3.55;;;2.97;;
59786;SDS011;45672;51.612;5.536;2022-10-16T03:47:17;2.88;;;2.60;;
59786;SDS011;45672;51.612;5.536;2022-10-16T03:49:46;4.20;;;2.75;;
59786;SDS011;45672;51.612;5.536;2022-10-16T03:52:11;6.05;;;2.80;;
59786;SDS011;45672;51.612;5.536;2022-10-16T03:54:37;4.38;;;2.80;;
59786;SDS011;45672;51.612;5.536;2022-10-16T03:57:02;3.03;;;2.70;;
59786;SDS011;45672;51.612;5.536;2022-10-16T03:59:27;4.13;;;2.58;;
59786;SDS011;45672;51.612;5.536;2022-10-16T04:01:53;4.07;;;2.60;;
59786;SDS011;45672;51.612;5.536;2022-10-16T04:04:18;3.65;;;2.92;;
59786;SDS011;45672;51.612;5.536;2022-10-16T04:06:43;6.63;;;3.10;;
59786;SDS011;45672;51.612;5.536;2022-10-16T04:09:08;3.95;;;2.92;;
59786;SDS011;45672;51.612;5.536;2022-10-16T04:11:33;3.03;;;2.83;;
59786;SDS011;45672;51.612;5.536;2022-10-16T04:13:59;5.50;;;3.13;;
59786;SDS011;45672;51.612;5.536;2022-10-16T04:16:24;4.00;;;3.17;;
59786;SDS011;45672;51.612;5.536;2022-10-16T04:18:49;4.65;;;3.00;;
59786;SDS011;45672;51.612;5.536;2022-10-16T04:21:15;3.65;;;3.03;;
59786;SDS011;45672;51.612;5.536;2022-10-16T04:23:40;3.40;;;3.10;;
59786;SDS011;45672;51.612;5.536;2022-10-16T04:26:07;5.32;;;3.13;;
59786;SDS011;45672;51.612;5.536;2022-10-16T04:28:32;4.70;;;3.35;;
59786;SDS011;45672;51.612;5.536;2022-10-16T04:30:57;4.97;;;3.20;;
59786;SDS011;45672;51.612;5.536;2022-10-16T04:33:22;3.05;;;2.85;;
59786;SDS011;45672;51.612;5.536;2022-10-16T04:35:48;3.78;;;2.85;;
59786;SDS011;45672;51.612;5.536;2022-10-16T04:38:13;4.25;;;2.70;;
59786;SDS011;45672;51.612;5.536;2022-10-16T04:40:38;5.10;;;3.00;;
59786;SDS011;45672;51.612;5.536;2022-10-16T04:43:04;3.38;;;3.08;;
59786;SDS011;45672;51.612;5.536;2022-10-16T04:45:29;4.05;;;2.85;;
59786;SDS011;45672;51.612;5.536;2022-10-16T04:47:58;4.47;;;3.05;;
59786;SDS011;45672;51.612;5.536;2022-10-16T04:50:24;6.78;;;2.88;;
59786;SDS011;45672;51.612;5.536;2022-10-16T04:52:49;4.10;;;2.90;;
59786;SDS011;45672;51.612;5.536;2022-10-16T04:55:14;3.28;;;3.00;;
59786;SDS011;45672;51.612;5.536;2022-10-16T04:57:40;3.72;;;2.90;;
59786;SDS011;45672;51.612;5.536;2022-10-16T05:00:06;4.78;;;3.05;;
59786;SDS011;45672;51.612;5.536;2022-10-16T05:02:33;5.20;;;2.80;;
59786;SDS011;45672;51.612;5.536;2022-10-16T05:04:58;4.70;;;2.67;;
59786;SDS011;45672;51.612;5.536;2022-10-16T05:07:23;9.82;;;3.20;;
59786;SDS011;45672;51.612;5.536;2022-10-16T05:09:48;3.25;;;2.88;;
59786;SDS011;45672;51.612;5.536;2022-10-16T05:12:14;3.13;;;2.70;;
59786;SDS011;45672;51.612;5.536;2022-10-16T05:14:39;3.95;;;2.70;;
59786;SDS011;45672;51.612;5.536;2022-10-16T05:17:04;3.97;;;2.72;;
59786;SDS011;45672;51.612;5.536;2022-10-16T05:19:30;5.20;;;3.17;;
59786;SDS011;45672;51.612;5.536;2022-10-16T05:21:55;2.90;;;2.60;;
59786;SDS011;45672;51.612;5.536;2022-10-16T05:24:20;4.53;;;2.88;;
59786;SDS011;45672;51.612;5.536;2022-10-16T05:26:46;3.05;;;2.63;;
59786;SDS011;45672;51.612;5.536;2022-10-16T05:29:11;4.28;;;2.63;;
59786;SDS011;45672;51.612;5.536;2022-10-16T05:31:37;9.32;;;2.70;;
59786;SDS011;45672;51.612;5.536;2022-10-16T05:34:02;4.22;;;3.30;;
59786;SDS011;45672;51.612;5.536;2022-10-16T05:36:27;6.38;;;2.92;;
59786;SDS011;45672;51.612;5.536;2022-10-16T05:38:53;5.93;;;3.28;;
59786;SDS011;45672;51.612;5.536;2022-10-16T05:41:18;7.85;;;3.25;;
59786;SDS011;45672;51.612;5.536;2022-10-16T05:43:48;5.40;;;2.85;;
59786;SDS011;45672;51.612;5.536;2022-10-16T05:46:14;4.63;;;2.85;;
59786;SDS011;45672;51.612;5.536;2022-10-16T05:48:40;4.65;;;3.30;;
59786;SDS011;45672;51.612;5.536;2022-10-16T05:51:06;4.40;;;3.38;;
59786;SDS011;45672;51.612;5.536;2022-10-16T05:53:35;3.38;;;2.92;;
59786;SDS011;45672;51.612;5.536;2022-10-16T05:56:01;5.97;;;3.28;;
59786;SDS011;45672;51.612;5.536;2022-10-16T05:58:28;4.70;;;3.17;;
59786;SDS011;45672;51.612;5.536;2022-10-16T06:00:56;5.95;;;3.10;;
59786;SDS011;45672;51.612;5.536;2022-10-16T06:03:23;8.57;;;3.38;;
59786;SDS011;45672;51.612;5.536;2022-10-16T06:05:48;8.27;;;3.28;;
59786;SDS011;45672;51.612;5.536;2022-10-16T06:08:14;6.60;;;3.20;;
59786;SDS011;45672;51.612;5.536;2022-10-16T06:10:39;6.63;;;3.40;;
59786;SDS011;45672;51.612;5.536;2022-10-16T06:13:04;6.25;;;3.97;;
59786;SDS011;45672;51.612;5.536;2022-10-16T06:15:30;10.23;;;3.50;;
59786;SDS011;45672;51.612;5.536;2022-10-16T06:17:55;6.40;;;3.45;;
59786;SDS011;45672;51.612;5.536;2022-10-16T06:20:20;9.57;;;4.07;;
59786;SDS011;45672;51.612;5.536;2022-10-16T06:22:45;7.15;;;4.10;;
59786;SDS011;45672;51.612;5.536;2022-10-16T06:25:11;4.18;;;3.65;;
59786;SDS011;45672;51.612;5.536;2022-10-16T06:27:38;6.50;;;3.80;;
59786;SDS011;45672;51.612;5.536;2022-10-16T06:30:05;5.00;;;3.88;;
59786;SDS011;45672;51.612;5.536;2022-10-16T06:32:31;8.43;;;3.85;;
59786;SDS011;45672;51.612;5.536;2022-10-16T06:34:56;4.72;;;3.97;;
59786;SDS011;45672;51.612;5.536;2022-10-16T06:37:21;8.02;;;4.00;;
59786;SDS011;45672;51.612;5.536;2022-10-16T06:39:47;4.95;;;3.67;;
59786;SDS011;45672;51.612;5.536;2022-10-16T06:42:12;7.18;;;4.47;;
59786;SDS011;45672;51.612;5.536;2022-10-16T06:44:37;4.38;;;3.70;;
59786;SDS011;45672;51.612;5.536;2022-10-16T06:47:02;7.25;;;3.67;;
59786;SDS011;45672;51.612;5.536;2022-10-16T06:49:28;5.93;;;3.45;;
59786;SDS011;45672;51.612;5.536;2022-10-16T06:51:54;7.13;;;3.88;;
59786;SDS011;45672;51.612;5.536;2022-10-16T06:54:20;5.25;;;3.70;;
59786;SDS011;45672;51.612;5.536;2022-10-16T06:56:45;7.22;;;4.03;;
59786;SDS011;45672;51.612;5.536;2022-10-16T06:59:11;4.10;;;3.60;;
59786;SDS011;45672;51.612;5.536;2022-10-16T07:01:36;5.45;;;4.20;;
59786;SDS011;45672;51.612;5.536;2022-10-16T07:04:01;7.28;;;4.22;;
59786;SDS011;45672;51.612;5.536;2022-10-16T07:06:30;6.55;;;3.90;;
59786;SDS011;45672;51.612;5.536;2022-10-16T07:08:56;4.80;;;3.42;;
59786;SDS011;45672;51.612;5.536;2022-10-16T07:11:22;7.18;;;3.83;;
59786;SDS011;45672;51.612;5.536;2022-10-16T07:13:48;14.10;;;4.03;;
59786;SDS011;45672;51.612;5.536;2022-10-16T07:16:16;7.25;;;3.97;;
59786;SDS011;45672;51.612;5.536;2022-10-16T07:18:45;6.85;;;3.20;;
59786;SDS011;45672;51.612;5.536;2022-10-16T07:21:14;4.75;;;3.17;;
59786;SDS011;45672;51.612;5.536;2022-10-16T07:23:41;3.97;;;3.22;;
59786;SDS011;45672;51.612;5.536;2022-10-16T07:26:07;4.15;;;3.17;;
59786;SDS011;45672;51.612;5.536;2022-10-16T07:28:33;4.88;;;3.17;;
59786;SDS011;45672;51.612;5.536;2022-10-16T07:31:01;3.53;;;3.22;;
59786;SDS011;45672;51.612;5.536;2022-10-16T07:33:32;4.97;;;2.65;;
59786;SDS011;45672;51.612;5.536;2022-10-16T07:35:58;5.53;;;3.25;;
59786;SDS011;45672;51.612;5.536;2022-10-16T07:38:23;4.68;;;2.50;;
59786;SDS011;45672;51.612;5.536;2022-10-16T07:40:55;5.05;;;2.78;;
59786;SDS011;45672;51.612;5.536;2022-10-16T07:43:21;6.68;;;2.53;;
59786;SDS011;45672;51.612;5.536;2022-10-16T07:45:47;5.32;;;2.60;;
59786;SDS011;45672;51.612;5.536;2022-10-16T07:48:14;4.03;;;2.55;;
59786;SDS011;45672;51.612;5.536;2022-10-16T07:50:39;6.40;;;2.63;;
59786;SDS011;45672;51.612;5.536;2022-10-16T07:53:05;4.60;;;2.60;;
59786;SDS011;45672;51.612;5.536;2022-10-16T07:55:30;7.50;;;2.40;;
59786;SDS011;45672;51.612;5.536;2022-10-16T07:57:55;2.70;;;2.30;;
59786;SDS011;45672;51.612;5.536;2022-10-16T08:00:20;4.72;;;2.90;;
59786;SDS011;45672;51.612;5.536;2022-10-16T08:02:46;4.30;;;2.42;;
59786;SDS011;45672;51.612;5.536;2022-10-16T08:05:11;6.78;;;2.20;;
59786;SDS011;45672;51.612;5.536;2022-10-16T08:07:37;2.50;;;1.98;;
59786;SDS011;45672;51.612;5.536;2022-10-16T08:10:02;3.83;;;2.17;;
59786;SDS011;45672;51.612;5.536;2022-10-16T08:12:28;4.00;;;2.00;;
59786;SDS011;45672;51.612;5.536;2022-10-16T08:14:53;6.30;;;2.30;;
59786;SDS011;45672;51.612;5.536;2022-10-16T08:17:19;5.80;;;2.20;;
59786;SDS011;45672;51.612;5.536;2022-10-16T08:19:47;3.38;;;2.10;;
59786;SDS011;45672;51.612;5.536;2022-10-16T08:22:13;3.80;;;2.17;;
59786;SDS011;45672;51.612;5.536;2022-10-16T08:24:39;3.45;;;2.13;;
59786;SDS011;45672;51.612;5.536;2022-10-16T08:27:05;6.00;;;2.28;;
59786;SDS011;45672;51.612;5.536;2022-10-16T08:29:31;5.75;;;2.42;;
59786;SDS011;45672;51.612;5.536;2022-10-16T08:31:57;5.20;;;2.13;;
59786;SDS011;45672;51.612;5.536;2022-10-16T08:34:22;5.60;;;2.10;;
59786;SDS011;45672;51.612;5.536;2022-10-16T08:36:47;4.47;;;2.00;;
59786;SDS011;45672;51.612;5.536;2022-10-16T08:39:12;6.22;;;1.90;;
59786;SDS011;45672;51.612;5.536;2022-10-16T08:41:53;4.85;;;1.83;;
59786;SDS011;45672;51.612;5.536;2022-10-16T08:45:08;5.30;;;1.42;;
59786;SDS011;45672;51.612;5.536;2022-10-16T08:50:44;5.45;;;1.60;;
59786;SDS011;45672;51.612;5.536;2022-10-16T08:53:15;4.43;;;1.65;;
59786;SDS011;45672;51.612;5.536;2022-10-16T08:55:52;2.83;;;1.40;;
59786;SDS011;45672;51.612;5.536;2022-10-16T08:58:19;3.08;;;1.58;;
59786;SDS011;45672;51.612;5.536;2022-10-16T09:00:47;2.90;;;1.50;;
59786;SDS011;45672;51.612;5.536;2022-10-16T09:03:28;5.30;;;1.77;;
59786;SDS011;45672;51.612;5.536;2022-10-16T09:08:54;3.10;;;1.30;;
59786;SDS011;45672;51.612;5.536;2022-10-16T09:11:42;4.43;;;1.73;;
59786;SDS011;45672;51.612;5.536;2022-10-16T09:14:26;6.80;;;1.30;;
59786;SDS011;45672;51.612;5.536;2022-10-16T09:22:40;3.13;;;1.30;;
59786;SDS011;45672;51.612;5.536;2022-10-16T09:25:15;2.10;;;1.30;;
59786;SDS011;45672;51.612;5.536;2022-10-16T09:27:44;4.38;;;1.20;;
59786;SDS011;45672;51.612;5.536;2022-10-16T09:30:15;2.88;;;1.10;;
59786;SDS011;45672;51.612;5.536;2022-10-16T09:32:43;4.10;;;1.35;;
59786;SDS011;45672;51.612;5.536;2022-10-16T09:35:15;5.90;;;1.30;;
59786;SDS011;45672;51.612;5.536;2022-10-16T09:37:44;5.18;;;1.40;;
59786;SDS011;45672;51.612;5.536;2022-10-16T09:40:12;5.03;;;1.45;;
59786;SDS011;45672;51.612;5.536;2022-10-16T09:42:48;5.38;;;1.40;;
59786;SDS011;45672;51.612;5.536;2022-10-16T09:45:21;6.18;;;1.60;;
59786;SDS011;45672;51.612;5.536;2022-10-16T09:47:48;8.05;;;1.73;;
59786;SDS011;45672;51.612;5.536;2022-10-16T09:50:26;5.30;;;1.70;;
59786;SDS011;45672;51.612;5.536;2022-10-16T09:53:07;6.97;;;1.50;;
59786;SDS011;45672;51.612;5.536;2022-10-16T09:55:36;5.95;;;1.58;;
59786;SDS011;45672;51.612;5.536;2022-10-16T09:58:01;7.55;;;1.88;;
59786;SDS011;45672;51.612;5.536;2022-10-16T10:00:26;6.47;;;1.85;;
59786;SDS011;45672;51.612;5.536;2022-10-16T10:02:52;6.00;;;1.52;;
59786;SDS011;45672;51.612;5.536;2022-10-16T10:05:20;8.48;;;2.03;;
59786;SDS011;45672;51.612;5.536;2022-10-16T10:08:00;5.65;;;1.67;;
59786;SDS011;45672;51.612;5.536;2022-10-16T10:10:32;6.53;;;1.73;;
59786;SDS011;45672;51.612;5.536;2022-10-16T10:12:59;6.40;;;1.98;;
59786;SDS011;45672;51.612;5.536;2022-10-16T10:15:24;5.90;;;1.70;;
59786;SDS011;45672;51.612;5.536;2022-10-16T10:17:57;10.48;;;1.92;;
59786;SDS011;45672;51.612;5.536;2022-10-16T10:22:57;11.10;;;2.25;;
59786;SDS011;45672;51.612;5.536;2022-10-16T10:25:41;10.40;;;2.40;;
59786;SDS011;45672;51.612;5.536;2022-10-16T10:28:33;8.45;;;2.03;;
59786;SDS011;45672;51.612;5.536;2022-10-16T10:31:21;10.52;;;2.63;;
59786;SDS011;45672;51.612;5.536;2022-10-16T10:36:29;10.13;;;1.92;;
59786;SDS011;45672;51.612;5.536;2022-10-16T10:39:00;5.50;;;1.90;;
59786;SDS011;45672;51.612;5.536;2022-10-16T10:52:59;12.25;;;2.05;;
59786;SDS011;45672;51.612;5.536;2022-10-16T11:01:26;9.60;;;2.25;;
59786;SDS011;45672;51.612;5.536;2022-10-16T11:04:08;11.32;;;1.98;;
59786;SDS011;45672;51.612;5.536;2022-10-16T11:09:28;9.73;;;2.00;;
59786;SDS011;45672;51.612;5.536;2022-10-16T11:14:28;5.90;;;2.08;;
59786;SDS011;45672;51.612;5.536;2022-10-16T11:17:22;9.57;;;2.10;;
59786;SDS011;45672;51.612;5.536;2022-10-16T11:19:54;12.60;;;1.98;;
59786;SDS011;45672;51.612;5.536;2022-10-16T11:22:26;10.85;;;2.42;;
59786;SDS011;45672;51.612;5.536;2022-10-16T11:24:59;10.10;;;1.95;;
59786;SDS011;45672;51.612;5.536;2022-10-16T11:27:37;7.60;;;1.88;;
59786;SDS011;45672;51.612;5.536;2022-10-16T11:30:15;9.50;;;2.50;;
59786;SDS011;45672;51.612;5.536;2022-10-16T11:38:02;10.02;;;2.30;;
59786;SDS011;45672;51.612;5.536;2022-10-16T11:40:33;10.48;;;2.13;;
59786;SDS011;45672;51.612;5.536;2022-10-16T11:45:54;10.85;;;2.28;;
59786;SDS011;45672;51.612;5.536;2022-10-16T11:48:25;11.75;;;2.10;;
59786;SDS011;45672;51.612;5.536;2022-10-16T11:56:13;12.25;;;2.50;;
59786;SDS011;45672;51.612;5.536;2022-10-16T11:58:47;8.10;;;2.33;;
59786;SDS011;45672;51.612;5.536;2022-10-16T12:07:02;11.93;;;2.17;;
59786;SDS011;45672;51.612;5.536;2022-10-16T12:09:34;12.50;;;2.00;;
59786;SDS011;45672;51.612;5.536;2022-10-16T12:12:03;15.27;;;2.13;;
59786;SDS011;45672;51.612;5.536;2022-10-16T12:16:55;12.70;;;2.50;;
59786;SDS011;45672;51.612;5.536;2022-10-16T12:19:23;9.70;;;2.20;;
59786;SDS011;45672;51.612;5.536;2022-10-16T12:21:50;16.20;;;5.30;;
59786;SDS011;45672;51.612;5.536;2022-10-16T12:24:39;11.02;;;3.17;;
59786;SDS011;45672;51.612;5.536;2022-10-16T12:29:54;9.57;;;4.20;;
59786;SDS011;45672;51.612;5.536;2022-10-16T12:32:25;13.07;;;3.10;;
59786;SDS011;45672;51.612;5.536;2022-10-16T12:34:54;11.52;;;3.85;;
59786;SDS011;45672;51.612;5.536;2022-10-16T12:37:23;9.15;;;2.35;;
59786;SDS011;45672;51.612;5.536;2022-10-16T12:39:52;8.98;;;2.35;;
59786;SDS011;45672;51.612;5.536;2022-10-16T12:44:44;16.03;;;2.60;;
59786;SDS011;45672;51.612;5.536;2022-10-16T12:47:19;12.38;;;2.88;;
59786;SDS011;45672;51.612;5.536;2022-10-16T12:49:53;6.07;;;1.80;;
59786;SDS011;45672;51.612;5.536;2022-10-16T12:52:26;9.55;;;2.80;;
59786;SDS011;45672;51.612;5.536;2022-10-16T12:54:55;7.35;;;2.05;;
59786;SDS011;45672;51.612;5.536;2022-10-16T13:00:41;6.05;;;2.00;;
59786;SDS011;45672;51.612;5.536;2022-10-16T13:03:21;8.20;;;3.15;;
59786;SDS011;45672;51.612;5.536;2022-10-16T13:08:57;8.35;;;2.20;;
59786;SDS011;45672;51.612;5.536;2022-10-16T13:14:47;7.35;;;2.10;;
59786;SDS011;45672;51.612;5.536;2022-10-16T13:17:18;8.55;;;2.03;;
59786;SDS011;45672;51.612;5.536;2022-10-16T13:20:26;5.88;;;2.03;;
59786;SDS011;45672;51.612;5.536;2022-10-16T13:23:08;9.70;;;2.60;;
59786;SDS011;45672;51.612;5.536;2022-10-16T13:28:11;7.10;;;1.70;;
59786;SDS011;45672;51.612;5.536;2022-10-16T13:33:07;10.80;;;1.88;;
59786;SDS011;45672;51.612;5.536;2022-10-16T13:35:45;7.75;;;1.65;;
59786;SDS011;45672;51.612;5.536;2022-10-16T13:38:16;7.05;;;1.65;;
59786;SDS011;45672;51.612;5.536;2022-10-16T13:41:03;7.32;;;2.22;;
59786;SDS011;45672;51.612;5.536;2022-10-16T13:43:39;8.85;;;2.05;;
59786;SDS011;45672;51.612;5.536;2022-10-16T13:48:41;6.95;;;1.70;;
59786;SDS011;45672;51.612;5.536;2022-10-16T13:51:13;7.45;;;2.42;;
59786;SDS011;45672;51.612;5.536;2022-10-16T13:53:40;6.53;;;1.80;;
59786;SDS011;45672;51.612;5.536;2022-10-16T13:56:07;7.85;;;1.90;;
59786;SDS011;45672;51.612;5.536;2022-10-16T13:58:37;7.35;;;1.90;;
59786;SDS011;45672;51.612;5.536;2022-10-16T14:01:15;8.85;;;2.35;;
59786;SDS011;45672;51.612;5.536;2022-10-16T14:03:43;7.90;;;1.63;;
59786;SDS011;45672;51.612;5.536;2022-10-16T14:06:14;9.50;;;1.88;;
59786;SDS011;45672;51.612;5.536;2022-10-16T14:08:43;8.10;;;1.88;;
59786;SDS011;45672;51.612;5.536;2022-10-16T14:11:11;8.07;;;1.88;;
59786;SDS011;45672;51.612;5.536;2022-10-16T14:13:38;4.82;;;1.50;;
59786;SDS011;45672;51.612;5.536;2022-10-16T14:16:09;7.90;;;1.67;;
59786;SDS011;45672;51.612;5.536;2022-10-16T14:18:37;7.43;;;1.70;;
59786;SDS011;45672;51.612;5.536;2022-10-16T14:21:05;7.88;;;1.70;;
59786;SDS011;45672;51.612;5.536;2022-10-16T14:23:36;7.18;;;1.67;;
59786;SDS011;45672;51.612;5.536;2022-10-16T14:26:11;8.48;;;1.70;;
59786;SDS011;45672;51.612;5.536;2022-10-16T14:28:39;10.73;;;1.50;;
59786;SDS011;45672;51.612;5.536;2022-10-16T14:33:49;3.08;;;1.40;;
59786;SDS011;45672;51.612;5.536;2022-10-16T14:36:15;9.20;;;2.97;;
59786;SDS011;45672;51.612;5.536;2022-10-16T14:38:59;8.15;;;1.52;;
59786;SDS011;45672;51.612;5.536;2022-10-16T14:41:27;6.50;;;1.85;;
59786;SDS011;45672;51.612;5.536;2022-10-16T14:44:12;4.97;;;1.67;;
59786;SDS011;45672;51.612;5.536;2022-10-16T14:46:38;5.97;;;1.45;;
59786;SDS011;45672;51.612;5.536;2022-10-16T14:51:34;11.32;;;2.10;;
59786;SDS011;45672;51.612;5.536;2022-10-16T14:54:00;6.97;;;1.98;;
59786;SDS011;45672;51.612;5.536;2022-10-16T14:56:30;4.22;;;1.67;;
59786;SDS011;45672;51.612;5.536;2022-10-16T14:58:59;5.35;;;1.75;;
59786;SDS011;45672;51.612;5.536;2022-10-16T15:01:26;11.05;;;2.30;;
59786;SDS011;45672;51.612;5.536;2022-10-16T15:03:51;6.75;;;2.03;;
59786;SDS011;45672;51.612;5.536;2022-10-16T15:06:20;4.03;;;1.92;;
59786;SDS011;45672;51.612;5.536;2022-10-16T15:08:54;7.78;;;2.08;;
59786;SDS011;45672;51.612;5.536;2022-10-16T15:11:19;9.63;;;2.17;;
59786;SDS011;45672;51.612;5.536;2022-10-16T15:13:45;6.05;;;2.25;;
59786;SDS011;45672;51.612;5.536;2022-10-16T15:16:12;6.22;;;2.53;;
59786;SDS011;45672;51.612;5.536;2022-10-16T15:18:39;8.52;;;2.40;;
59786;SDS011;45672;51.612;5.536;2022-10-16T15:21:04;6.40;;;2.85;;
59786;SDS011;45672;51.612;5.536;2022-10-16T15:23:30;4.55;;;2.60;;
59786;SDS011;45672;51.612;5.536;2022-10-16T15:25:56;9.13;;;3.03;;
59786;SDS011;45672;51.612;5.536;2022-10-16T15:28:22;9.25;;;3.00;;
59786;SDS011;45672;51.612;5.536;2022-10-16T15:30:50;5.72;;;2.67;;
59786;SDS011;45672;51.612;5.536;2022-10-16T15:33:17;6.78;;;2.53;;
59786;SDS011;45672;51.612;5.536;2022-10-16T15:35:48;10.68;;;2.50;;
59786;SDS011;45672;51.612;5.536;2022-10-16T15:38:15;5.40;;;2.17;;
59786;SDS011;45672;51.612;5.536;2022-10-16T15:40:41;13.32;;;2.40;;
59786;SDS011;45672;51.612;5.536;2022-10-16T15:43:07;5.75;;;2.10;;
59786;SDS011;45672;51.612;5.536;2022-10-16T15:45:32;8.63;;;2.50;;
59786;SDS011;45672;51.612;5.536;2022-10-16T15:47:58;6.50;;;2.03;;
59786;SDS011;45672;51.612;5.536;2022-10-16T15:50:23;11.20;;;2.40;;
59786;SDS011;45672;51.612;5.536;2022-10-16T15:52:49;7.75;;;2.10;;
59786;SDS011;45672;51.612;5.536;2022-10-16T15:55:14;4.97;;;2.05;;
59786;SDS011;45672;51.612;5.536;2022-10-16T15:57:40;7.13;;;1.95;;
59786;SDS011;45672;51.612;5.536;2022-10-16T16:00:08;10.05;;;1.95;;
59786;SDS011;45672;51.612;5.536;2022-10-16T16:02:36;6.28;;;1.58;;
59786;SDS011;45672;51.612;5.536;2022-10-16T16:05:02;4.93;;;1.80;;
59786;SDS011;45672;51.612;5.536;2022-10-16T16:07:28;7.68;;;2.15;;
59786;SDS011;45672;51.612;5.536;2022-10-16T16:09:53;10.30;;;2.47;;
59786;SDS011;45672;51.612;5.536;2022-10-16T16:12:19;7.35;;;2.40;;
59786;SDS011;45672;51.612;5.536;2022-10-16T16:14:44;4.47;;;2.15;;
59786;SDS011;45672;51.612;5.536;2022-10-16T16:17:11;6.07;;;2.10;;
59786;SDS011;45672;51.612;5.536;2022-10-16T16:19:36;7.20;;;2.70;;
59786;SDS011;45672;51.612;5.536;2022-10-16T16:22:02;5.78;;;2.40;;
59786;SDS011;45672;51.612;5.536;2022-10-16T16:24:27;5.97;;;2.03;;
59786;SDS011;45672;51.612;5.536;2022-10-16T16:26:52;7.60;;;2.20;;
59786;SDS011;45672;51.612;5.536;2022-10-16T16:29:17;5.28;;;2.25;;
59786;SDS011;45672;51.612;5.536;2022-10-16T16:31:43;5.72;;;2.30;;
59786;SDS011;45672;51.612;5.536;2022-10-16T16:34:09;4.00;;;1.73;;
59786;SDS011;45672;51.612;5.536;2022-10-16T16:36:35;7.45;;;2.22;;